RKSI/ICN METAR and TAF weather

Enter ICAO airport designator
Station Type Date Time Source
RKSI METAR 2020/01/22 18:00 UTC NOAA

RKSI 221800Z 36004KT 8000 NSC 02/M05 Q1023 NOSIG


Station Type Date Time Source
RKSI Decoded METAR 2020/01/22 18:00 UTC NOAA

Incheon International Airport, Korea, South (RKSI) 37-28N 126-27E
Jan 22, 2020 - 01:00 PM EST / 2020.01.22 1800 UTC
Wind: from the N (360 degrees) at 5 MPH (4 KT):0
Visibility: 4 mile(s):0
Temperature: 35 F (2 C)
Windchill: 30 F (-1 C):1
Dew Point: 23 F (-5 C)
Relative Humidity: 59%
Pressure (altimeter): 30.21 in. Hg (1023 hPa)
ob: RKSI 221800Z 36004KT 8000 NSC 02/M05 Q1023 NOSIG
cycle: 18

Station Type Date Time Source
RKSI TAF 2020/01/22 18:09 UTC NOAA

TAF RKSI 221700Z 2218/2324 04005KT CAVOK TN01/2222Z TX09/2306Z TNM00/2322Z
BECMG 2223/2224 34010KT

Example: see airport list